sensor_id;sensor_type;location;lat;lon;timestamp;P1;durP1;ratioP1;P2;durP2;ratioP2
20649;SDS011;10484;48.736;9.332;2022-07-11T00:01:42;1.07;;;0.90;;
20649;SDS011;10484;48.736;9.332;2022-07-11T00:04:08;2.00;;;1.23;;
20649;SDS011;10484;48.736;9.332;2022-07-11T00:06:34;1.77;;;1.40;;
20649;SDS011;10484;48.736;9.332;2022-07-11T00:09:00;3.70;;;1.00;;
20649;SDS011;10484;48.736;9.332;2022-07-11T00:11:26;1.40;;;1.13;;
20649;SDS011;10484;48.736;9.332;2022-07-11T00:13:52;5.00;;;1.50;;
20649;SDS011;10484;48.736;9.332;2022-07-11T00:16:17;1.93;;;1.20;;
20649;SDS011;10484;48.736;9.332;2022-07-11T00:18:43;2.83;;;1.40;;
20649;SDS011;10484;48.736;9.332;2022-07-11T00:21:10;1.40;;;1.23;;
20649;SDS011;10484;48.736;9.332;2022-07-11T00:23:36;2.60;;;1.27;;
20649;SDS011;10484;48.736;9.332;2022-07-11T00:26:02;3.90;;;1.60;;
20649;SDS011;10484;48.736;9.332;2022-07-11T00:28:28;2.13;;;1.20;;
20649;SDS011;10484;48.736;9.332;2022-07-11T00:30:54;1.70;;;1.60;;
20649;SDS011;10484;48.736;9.332;2022-07-11T00:33:19;1.40;;;1.30;;
20649;SDS011;10484;48.736;9.332;2022-07-11T00:35:45;1.87;;;1.30;;
20649;SDS011;10484;48.736;9.332;2022-07-11T00:38:11;1.80;;;1.70;;
20649;SDS011;10484;48.736;9.332;2022-07-11T00:40:36;2.07;;;1.20;;
20649;SDS011;10484;48.736;9.332;2022-07-11T00:43:02;1.60;;;1.17;;
20649;SDS011;10484;48.736;9.332;2022-07-11T00:45:29;3.50;;;1.50;;
20649;SDS011;10484;48.736;9.332;2022-07-11T00:47:54;3.67;;;1.67;;
20649;SDS011;10484;48.736;9.332;2022-07-11T00:50:22;5.83;;;1.80;;
20649;SDS011;10484;48.736;9.332;2022-07-11T00:52:52;1.73;;;1.33;;
20649;SDS011;10484;48.736;9.332;2022-07-11T00:55:20;1.30;;;1.17;;
20649;SDS011;10484;48.736;9.332;2022-07-11T00:57:46;2.63;;;1.93;;
20649;SDS011;10484;48.736;9.332;2022-07-11T01:00:12;1.73;;;1.30;;
20649;SDS011;10484;48.736;9.332;2022-07-11T01:02:38;3.90;;;1.30;;
20649;SDS011;10484;48.736;9.332;2022-07-11T01:05:04;2.00;;;1.40;;
20649;SDS011;10484;48.736;9.332;2022-07-11T01:07:31;3.57;;;1.20;;
20649;SDS011;10484;48.736;9.332;2022-07-11T01:09:57;5.00;;;1.30;;
20649;SDS011;10484;48.736;9.332;2022-07-11T01:12:24;3.10;;;1.43;;
20649;SDS011;10484;48.736;9.332;2022-07-11T01:14:50;1.50;;;1.13;;
20649;SDS011;10484;48.736;9.332;2022-07-11T01:17:19;3.53;;;1.43;;
20649;SDS011;10484;48.736;9.332;2022-07-11T01:19:45;2.30;;;1.40;;
20649;SDS011;10484;48.736;9.332;2022-07-11T01:22:12;1.63;;;1.37;;
20649;SDS011;10484;48.736;9.332;2022-07-11T01:24:40;1.53;;;1.40;;
20649;SDS011;10484;48.736;9.332;2022-07-11T01:27:07;1.97;;;1.10;;
20649;SDS011;10484;48.736;9.332;2022-07-11T01:29:34;2.03;;;1.37;;
20649;SDS011;10484;48.736;9.332;2022-07-11T01:31:59;2.73;;;1.60;;
20649;SDS011;10484;48.736;9.332;2022-07-11T01:34:25;2.40;;;1.60;;
20649;SDS011;10484;48.736;9.332;2022-07-11T01:36:51;2.33;;;1.77;;
20649;SDS011;10484;48.736;9.332;2022-07-11T01:39:16;1.90;;;1.40;;
20649;SDS011;10484;48.736;9.332;2022-07-11T01:41:43;2.77;;;1.47;;
20649;SDS011;10484;48.736;9.332;2022-07-11T01:44:08;2.73;;;1.30;;
20649;SDS011;10484;48.736;9.332;2022-07-11T01:46:34;1.70;;;1.30;;
20649;SDS011;10484;48.736;9.332;2022-07-11T01:49:00;2.77;;;1.80;;
20649;SDS011;10484;48.736;9.332;2022-07-11T01:51:27;1.50;;;1.40;;
20649;SDS011;10484;48.736;9.332;2022-07-11T01:53:53;2.20;;;1.37;;
20649;SDS011;10484;48.736;9.332;2022-07-11T01:56:21;1.30;;;1.17;;
20649;SDS011;10484;48.736;9.332;2022-07-11T01:58:47;2.20;;;1.30;;
20649;SDS011;10484;48.736;9.332;2022-07-11T02:01:13;2.13;;;1.23;;
20649;SDS011;10484;48.736;9.332;2022-07-11T02:03:39;2.77;;;1.57;;
20649;SDS011;10484;48.736;9.332;2022-07-11T02:06:05;4.00;;;1.07;;
20649;SDS011;10484;48.736;9.332;2022-07-11T02:08:31;1.93;;;1.60;;
20649;SDS011;10484;48.736;9.332;2022-07-11T02:10:57;2.13;;;1.20;;
20649;SDS011;10484;48.736;9.332;2022-07-11T02:13:23;1.77;;;1.43;;
20649;SDS011;10484;48.736;9.332;2022-07-11T02:15:49;2.50;;;1.50;;
20649;SDS011;10484;48.736;9.332;2022-07-11T02:18:16;3.10;;;1.90;;
20649;SDS011;10484;48.736;9.332;2022-07-11T02:20:42;1.90;;;1.60;;
20649;SDS011;10484;48.736;9.332;2022-07-11T02:23:10;2.00;;;1.80;;
20649;SDS011;10484;48.736;9.332;2022-07-11T02:25:37;3.70;;;1.30;;
20649;SDS011;10484;48.736;9.332;2022-07-11T02:28:06;3.67;;;1.30;;
20649;SDS011;10484;48.736;9.332;2022-07-11T02:30:35;2.20;;;1.80;;
20649;SDS011;10484;48.736;9.332;2022-07-11T02:33:02;2.40;;;1.60;;
20649;SDS011;10484;48.736;9.332;2022-07-11T02:35:28;3.40;;;2.03;;
20649;SDS011;10484;48.736;9.332;2022-07-11T02:37:54;2.20;;;1.33;;
20649;SDS011;10484;48.736;9.332;2022-07-11T02:40:19;1.47;;;1.37;;
20649;SDS011;10484;48.736;9.332;2022-07-11T02:42:45;1.90;;;1.27;;
20649;SDS011;10484;48.736;9.332;2022-07-11T02:45:11;2.90;;;1.40;;
20649;SDS011;10484;48.736;9.332;2022-07-11T02:47:37;2.27;;;1.77;;
20649;SDS011;10484;48.736;9.332;2022-07-11T02:50:07;4.97;;;1.40;;
20649;SDS011;10484;48.736;9.332;2022-07-11T02:52:34;2.27;;;1.17;;
20649;SDS011;10484;48.736;9.332;2022-07-11T02:55:00;4.20;;;1.33;;
20649;SDS011;10484;48.736;9.332;2022-07-11T02:57:26;3.03;;;1.77;;
20649;SDS011;10484;48.736;9.332;2022-07-11T02:59:51;2.20;;;1.27;;
20649;SDS011;10484;48.736;9.332;2022-07-11T03:02:17;1.53;;;1.43;;
20649;SDS011;10484;48.736;9.332;2022-07-11T03:04:43;3.83;;;1.73;;
20649;SDS011;10484;48.736;9.332;2022-07-11T03:07:08;1.70;;;1.53;;
20649;SDS011;10484;48.736;9.332;2022-07-11T03:09:34;2.33;;;1.70;;
20649;SDS011;10484;48.736;9.332;2022-07-11T03:11:59;2.03;;;1.70;;
20649;SDS011;10484;48.736;9.332;2022-07-11T03:14:26;2.27;;;1.40;;
20649;SDS011;10484;48.736;9.332;2022-07-11T03:16:52;3.43;;;1.47;;
20649;SDS011;10484;48.736;9.332;2022-07-11T03:19:18;2.60;;;1.73;;
20649;SDS011;10484;48.736;9.332;2022-07-11T03:21:43;2.97;;;1.30;;
20649;SDS011;10484;48.736;9.332;2022-07-11T03:24:09;2.10;;;1.30;;
20649;SDS011;10484;48.736;9.332;2022-07-11T03:26:34;2.63;;;1.90;;
20649;SDS011;10484;48.736;9.332;2022-07-11T03:29:00;1.57;;;1.47;;
20649;SDS011;10484;48.736;9.332;2022-07-11T03:31:26;2.73;;;1.40;;
20649;SDS011;10484;48.736;9.332;2022-07-11T03:33:51;3.23;;;1.53;;
20649;SDS011;10484;48.736;9.332;2022-07-11T03:36:17;2.23;;;2.03;;
20649;SDS011;10484;48.736;9.332;2022-07-11T03:38:42;3.13;;;1.80;;
20649;SDS011;10484;48.736;9.332;2022-07-11T03:41:08;2.20;;;1.60;;
20649;SDS011;10484;48.736;9.332;2022-07-11T03:43:34;3.20;;;1.80;;
20649;SDS011;10484;48.736;9.332;2022-07-11T03:45:59;2.20;;;1.80;;
20649;SDS011;10484;48.736;9.332;2022-07-11T03:48:25;4.33;;;1.93;;
20649;SDS011;10484;48.736;9.332;2022-07-11T03:50:51;3.27;;;1.80;;
20649;SDS011;10484;48.736;9.332;2022-07-11T03:53:16;3.30;;;2.00;;
20649;SDS011;10484;48.736;9.332;2022-07-11T03:55:42;4.33;;;1.70;;
20649;SDS011;10484;48.736;9.332;2022-07-11T03:58:08;2.90;;;1.70;;
20649;SDS011;10484;48.736;9.332;2022-07-11T04:00:33;4.00;;;1.97;;
20649;SDS011;10484;48.736;9.332;2022-07-11T04:02:59;2.70;;;1.83;;
20649;SDS011;10484;48.736;9.332;2022-07-11T04:05:25;1.93;;;1.70;;
20649;SDS011;10484;48.736;9.332;2022-07-11T04:07:52;1.97;;;1.87;;
20649;SDS011;10484;48.736;9.332;2022-07-11T04:10:17;2.20;;;1.97;;
20649;SDS011;10484;48.736;9.332;2022-07-11T04:12:44;3.23;;;1.50;;
20649;SDS011;10484;48.736;9.332;2022-07-11T04:15:10;4.77;;;2.40;;
20649;SDS011;10484;48.736;9.332;2022-07-11T04:17:36;1.97;;;1.87;;
20649;SDS011;10484;48.736;9.332;2022-07-11T04:20:03;5.30;;;2.43;;
20649;SDS011;10484;48.736;9.332;2022-07-11T04:22:29;3.40;;;1.90;;
20649;SDS011;10484;48.736;9.332;2022-07-11T04:24:55;4.17;;;2.23;;
20649;SDS011;10484;48.736;9.332;2022-07-11T04:27:21;3.40;;;1.57;;
20649;SDS011;10484;48.736;9.332;2022-07-11T04:29:46;4.23;;;2.20;;
20649;SDS011;10484;48.736;9.332;2022-07-11T04:32:12;5.17;;;2.20;;
20649;SDS011;10484;48.736;9.332;2022-07-11T04:34:38;4.50;;;2.13;;
20649;SDS011;10484;48.736;9.332;2022-07-11T04:37:04;4.40;;;2.37;;
20649;SDS011;10484;48.736;9.332;2022-07-11T04:39:30;3.93;;;1.90;;
20649;SDS011;10484;48.736;9.332;2022-07-11T04:41:57;9.63;;;3.40;;
20649;SDS011;10484;48.736;9.332;2022-07-11T04:44:23;4.00;;;2.60;;
20649;SDS011;10484;48.736;9.332;2022-07-11T04:46:49;1.87;;;1.63;;
20649;SDS011;10484;48.736;9.332;2022-07-11T04:49:15;2.30;;;1.70;;
20649;SDS011;10484;48.736;9.332;2022-07-11T04:51:40;2.40;;;1.63;;
20649;SDS011;10484;48.736;9.332;2022-07-11T04:54:06;3.30;;;2.20;;
20649;SDS011;10484;48.736;9.332;2022-07-11T04:56:32;3.63;;;1.60;;
20649;SDS011;10484;48.736;9.332;2022-07-11T04:58:58;2.50;;;1.77;;
20649;SDS011;10484;48.736;9.332;2022-07-11T05:01:23;2.50;;;1.90;;
20649;SDS011;10484;48.736;9.332;2022-07-11T05:03:49;2.23;;;2.03;;
20649;SDS011;10484;48.736;9.332;2022-07-11T05:06:15;5.20;;;2.80;;
20649;SDS011;10484;48.736;9.332;2022-07-11T05:08:40;2.70;;;1.90;;
20649;SDS011;10484;48.736;9.332;2022-07-11T05:11:06;3.67;;;2.10;;
20649;SDS011;10484;48.736;9.332;2022-07-11T05:13:31;4.97;;;2.00;;
20649;SDS011;10484;48.736;9.332;2022-07-11T05:15:57;2.40;;;1.70;;
20649;SDS011;10484;48.736;9.332;2022-07-11T05:18:23;2.57;;;2.10;;
20649;SDS011;10484;48.736;9.332;2022-07-11T05:20:49;3.37;;;2.10;;
20649;SDS011;10484;48.736;9.332;2022-07-11T05:23:14;3.47;;;2.30;;
20649;SDS011;10484;48.736;9.332;2022-07-11T05:25:40;2.90;;;2.43;;
20649;SDS011;10484;48.736;9.332;2022-07-11T05:28:06;3.70;;;2.40;;
20649;SDS011;10484;48.736;9.332;2022-07-11T05:30:32;6.03;;;3.43;;
20649;SDS011;10484;48.736;9.332;2022-07-11T05:32:58;3.53;;;2.40;;
20649;SDS011;10484;48.736;9.332;2022-07-11T05:35:23;3.10;;;2.57;;
20649;SDS011;10484;48.736;9.332;2022-07-11T05:37:50;4.50;;;2.67;;
20649;SDS011;10484;48.736;9.332;2022-07-11T05:40:16;10.43;;;2.90;;
20649;SDS011;10484;48.736;9.332;2022-07-11T05:42:41;4.00;;;2.00;;
20649;SDS011;10484;48.736;9.332;2022-07-11T05:45:07;3.67;;;2.40;;
20649;SDS011;10484;48.736;9.332;2022-07-11T05:47:34;3.33;;;2.67;;
20649;SDS011;10484;48.736;9.332;2022-07-11T05:49:59;8.07;;;3.00;;
20649;SDS011;10484;48.736;9.332;2022-07-11T05:52:25;3.30;;;2.70;;
20649;SDS011;10484;48.736;9.332;2022-07-11T05:54:51;3.90;;;2.47;;
20649;SDS011;10484;48.736;9.332;2022-07-11T05:57:16;3.03;;;2.70;;
20649;SDS011;10484;48.736;9.332;2022-07-11T05:59:42;5.30;;;2.77;;
20649;SDS011;10484;48.736;9.332;2022-07-11T06:02:07;3.90;;;2.33;;
20649;SDS011;10484;48.736;9.332;2022-07-11T06:04:33;3.60;;;2.17;;
20649;SDS011;10484;48.736;9.332;2022-07-11T06:07:00;2.77;;;2.40;;
20649;SDS011;10484;48.736;9.332;2022-07-11T06:09:25;2.77;;;2.57;;
20649;SDS011;10484;48.736;9.332;2022-07-11T06:11:51;3.00;;;1.97;;
20649;SDS011;10484;48.736;9.332;2022-07-11T06:14:17;5.53;;;2.90;;
20649;SDS011;10484;48.736;9.332;2022-07-11T06:16:43;3.00;;;2.33;;
20649;SDS011;10484;48.736;9.332;2022-07-11T06:19:08;4.17;;;2.97;;
20649;SDS011;10484;48.736;9.332;2022-07-11T06:21:34;4.20;;;2.60;;
20649;SDS011;10484;48.736;9.332;2022-07-11T06:24:00;3.17;;;2.87;;
20649;SDS011;10484;48.736;9.332;2022-07-11T06:26:25;3.30;;;2.47;;
20649;SDS011;10484;48.736;9.332;2022-07-11T06:28:51;3.37;;;3.00;;
20649;SDS011;10484;48.736;9.332;2022-07-11T06:31:17;5.97;;;3.00;;
20649;SDS011;10484;48.736;9.332;2022-07-11T06:33:43;4.43;;;2.83;;
20649;SDS011;10484;48.736;9.332;2022-07-11T06:36:08;5.70;;;3.00;;
20649;SDS011;10484;48.736;9.332;2022-07-11T06:38:34;6.00;;;2.87;;
20649;SDS011;10484;48.736;9.332;2022-07-11T06:41:00;4.43;;;2.43;;
20649;SDS011;10484;48.736;9.332;2022-07-11T06:43:27;3.07;;;2.73;;
20649;SDS011;10484;48.736;9.332;2022-07-11T06:45:54;2.90;;;2.70;;
20649;SDS011;10484;48.736;9.332;2022-07-11T06:48:19;3.10;;;2.70;;
20649;SDS011;10484;48.736;9.332;2022-07-11T06:50:46;2.97;;;2.40;;
20649;SDS011;10484;48.736;9.332;2022-07-11T06:53:12;3.63;;;2.90;;
20649;SDS011;10484;48.736;9.332;2022-07-11T06:55:38;3.73;;;2.60;;
20649;SDS011;10484;48.736;9.332;2022-07-11T06:58:04;2.60;;;2.40;;
20649;SDS011;10484;48.736;9.332;2022-07-11T07:00:30;4.97;;;2.67;;
20649;SDS011;10484;48.736;9.332;2022-07-11T07:02:56;5.03;;;2.77;;
20649;SDS011;10484;48.736;9.332;2022-07-11T07:05:23;4.47;;;2.70;;
20649;SDS011;10484;48.736;9.332;2022-07-11T07:07:50;3.50;;;3.20;;
20649;SDS011;10484;48.736;9.332;2022-07-11T07:10:16;2.97;;;2.77;;
20649;SDS011;10484;48.736;9.332;2022-07-11T07:12:42;3.83;;;2.73;;
20649;SDS011;10484;48.736;9.332;2022-07-11T07:15:09;3.00;;;2.70;;
20649;SDS011;10484;48.736;9.332;2022-07-11T07:17:36;5.87;;;3.10;;
20649;SDS011;10484;48.736;9.332;2022-07-11T07:20:02;2.97;;;2.70;;
20649;SDS011;10484;48.736;9.332;2022-07-11T07:22:29;2.83;;;2.40;;
20649;SDS011;10484;48.736;9.332;2022-07-11T07:24:55;3.83;;;3.20;;
20649;SDS011;10484;48.736;9.332;2022-07-11T07:27:21;3.60;;;3.30;;
20649;SDS011;10484;48.736;9.332;2022-07-11T07:29:47;5.00;;;3.20;;
20649;SDS011;10484;48.736;9.332;2022-07-11T07:32:13;4.03;;;2.60;;
20649;SDS011;10484;48.736;9.332;2022-07-11T07:34:39;5.27;;;2.80;;
20649;SDS011;10484;48.736;9.332;2022-07-11T07:37:05;3.87;;;2.73;;
20649;SDS011;10484;48.736;9.332;2022-07-11T07:39:30;4.63;;;3.03;;
20649;SDS011;10484;48.736;9.332;2022-07-11T07:41:56;4.47;;;2.90;;
20649;SDS011;10484;48.736;9.332;2022-07-11T07:44:22;4.60;;;3.20;;
20649;SDS011;10484;48.736;9.332;2022-07-11T07:46:47;3.90;;;3.50;;
20649;SDS011;10484;48.736;9.332;2022-07-11T07:49:13;4.40;;;2.40;;
20649;SDS011;10484;48.736;9.332;2022-07-11T07:51:39;2.77;;;2.53;;
20649;SDS011;10484;48.736;9.332;2022-07-11T07:54:04;4.10;;;2.37;;
20649;SDS011;10484;48.736;9.332;2022-07-11T07:56:30;2.67;;;2.30;;
20649;SDS011;10484;48.736;9.332;2022-07-11T07:58:55;3.00;;;2.70;;
20649;SDS011;10484;48.736;9.332;2022-07-11T08:01:21;2.57;;;2.23;;
20649;SDS011;10484;48.736;9.332;2022-07-11T08:03:59;3.50;;;2.30;;
20649;SDS011;10484;48.736;9.332;2022-07-11T08:06:26;1.90;;;1.80;;
20649;SDS011;10484;48.736;9.332;2022-07-11T08:08:51;3.37;;;2.50;;
20649;SDS011;10484;48.736;9.332;2022-07-11T08:11:17;6.90;;;2.50;;
20649;SDS011;10484;48.736;9.332;2022-07-11T08:13:43;2.10;;;2.00;;
20649;SDS011;10484;48.736;9.332;2022-07-11T08:16:09;3.03;;;1.90;;
20649;SDS011;10484;48.736;9.332;2022-07-11T08:18:35;3.33;;;1.63;;
20649;SDS011;10484;48.736;9.332;2022-07-11T08:21:01;2.20;;;2.00;;
20649;SDS011;10484;48.736;9.332;2022-07-11T08:23:27;2.73;;;1.67;;
20649;SDS011;10484;48.736;9.332;2022-07-11T08:25:53;1.70;;;0.90;;
20649;SDS011;10484;48.736;9.332;2022-07-11T08:28:19;1.83;;;1.17;;
20649;SDS011;10484;48.736;9.332;2022-07-11T08:30:45;1.00;;;0.90;;
20649;SDS011;10484;48.736;9.332;2022-07-11T08:33:11;2.17;;;1.13;;
20649;SDS011;10484;48.736;9.332;2022-07-11T08:35:37;2.30;;;1.07;;
20649;SDS011;10484;48.736;9.332;2022-07-11T08:38:03;1.60;;;1.30;;
20649;SDS011;10484;48.736;9.332;2022-07-11T08:40:29;1.27;;;1.17;;
20649;SDS011;10484;48.736;9.332;2022-07-11T08:42:55;0.93;;;0.70;;
20649;SDS011;10484;48.736;9.332;2022-07-11T08:45:22;2.40;;;1.00;;
20649;SDS011;10484;48.736;9.332;2022-07-11T08:47:54;1.00;;;0.90;;
20649;SDS011;10484;48.736;9.332;2022-07-11T08:50:22;2.20;;;1.23;;
20649;SDS011;10484;48.736;9.332;2022-07-11T08:52:48;2.67;;;1.00;;
20649;SDS011;10484;48.736;9.332;2022-07-11T08:55:14;1.27;;;1.00;;
20649;SDS011;10484;48.736;9.332;2022-07-11T08:57:40;2.50;;;1.27;;
20649;SDS011;10484;48.736;9.332;2022-07-11T09:00:06;1.93;;;1.10;;
20649;SDS011;10484;48.736;9.332;2022-07-11T09:02:34;1.10;;;1.00;;
20649;SDS011;10484;48.736;9.332;2022-07-11T09:05:00;1.17;;;0.97;;
20649;SDS011;10484;48.736;9.332;2022-07-11T09:07:30;1.10;;;1.00;;
20649;SDS011;10484;48.736;9.332;2022-07-11T09:09:56;1.20;;;1.07;;
20649;SDS011;10484;48.736;9.332;2022-07-11T09:12:22;0.93;;;0.90;;
20649;SDS011;10484;48.736;9.332;2022-07-11T09:14:48;2.17;;;1.07;;
20649;SDS011;10484;48.736;9.332;2022-07-11T09:17:23;2.10;;;0.90;;
20649;SDS011;10484;48.736;9.332;2022-07-11T09:19:51;0.70;;;0.70;;
20649;SDS011;10484;48.736;9.332;2022-07-11T09:22:17;1.30;;;0.90;;
20649;SDS011;10484;48.736;9.332;2022-07-11T09:25:05;1.37;;;0.90;;
20649;SDS011;10484;48.736;9.332;2022-07-11T09:28:00;1.00;;;0.70;;
20649;SDS011;10484;48.736;9.332;2022-07-11T09:30:31;0.63;;;0.60;;
20649;SDS011;10484;48.736;9.332;2022-07-11T09:33:05;1.13;;;1.00;;
20649;SDS011;10484;48.736;9.332;2022-07-11T09:38:16;0.80;;;0.80;;
20649;SDS011;10484;48.736;9.332;2022-07-11T09:40:42;0.80;;;0.70;;
20649;SDS011;10484;48.736;9.332;2022-07-11T09:43:10;0.90;;;0.67;;
20649;SDS011;10484;48.736;9.332;2022-07-11T09:45:36;2.20;;;0.70;;
20649;SDS011;10484;48.736;9.332;2022-07-11T09:48:11;1.47;;;0.70;;
20649;SDS011;10484;48.736;9.332;2022-07-11T09:50:38;2.00;;;1.00;;
20649;SDS011;10484;48.736;9.332;2022-07-11T09:53:09;2.00;;;0.90;;
20649;SDS011;10484;48.736;9.332;2022-07-11T09:55:37;1.70;;;1.20;;
20649;SDS011;10484;48.736;9.332;2022-07-11T09:58:06;1.90;;;1.13;;
20649;SDS011;10484;48.736;9.332;2022-07-11T10:00:36;1.60;;;1.27;;
20649;SDS011;10484;48.736;9.332;2022-07-11T10:03:03;1.77;;;1.20;;
20649;SDS011;10484;48.736;9.332;2022-07-11T10:05:30;2.23;;;1.33;;
20649;SDS011;10484;48.736;9.332;2022-07-11T10:07:57;1.97;;;1.03;;
20649;SDS011;10484;48.736;9.332;2022-07-11T10:10:23;1.23;;;1.03;;
20649;SDS011;10484;48.736;9.332;2022-07-11T10:12:50;1.17;;;1.07;;
20649;SDS011;10484;48.736;9.332;2022-07-11T10:15:19;1.20;;;1.10;;
20649;SDS011;10484;48.736;9.332;2022-07-11T10:17:54;1.30;;;1.23;;
20649;SDS011;10484;48.736;9.332;2022-07-11T10:23:03;2.60;;;1.17;;
20649;SDS011;10484;48.736;9.332;2022-07-11T10:30:49;1.63;;;1.17;;
20649;SDS011;10484;48.736;9.332;2022-07-11T10:33:16;1.00;;;1.00;;
20649;SDS011;10484;48.736;9.332;2022-07-11T10:35:43;1.30;;;1.20;;
20649;SDS011;10484;48.736;9.332;2022-07-11T10:38:14;2.00;;;1.07;;
20649;SDS011;10484;48.736;9.332;2022-07-11T10:43:33;1.10;;;1.00;;
20649;SDS011;10484;48.736;9.332;2022-07-11T11:00:07;1.10;;;1.00;;
20649;SDS011;10484;48.736;9.332;2022-07-11T11:08:34;1.30;;;1.20;;
20649;SDS011;10484;48.736;9.332;2022-07-11T11:10:57;1.97;;;1.00;;
20649;SDS011;10484;48.736;9.332;2022-07-11T11:13:24;1.10;;;1.07;;
20649;SDS011;10484;48.736;9.332;2022-07-11T11:23:31;1.67;;;1.03;;
20649;SDS011;10484;48.736;9.332;2022-07-11T11:26:07;1.40;;;1.30;;
20649;SDS011;10484;48.736;9.332;2022-07-11T11:28:37;1.20;;;0.90;;
20649;SDS011;10484;48.736;9.332;2022-07-11T11:31:04;1.63;;;1.23;;
20649;SDS011;10484;48.736;9.332;2022-07-11T11:33:32;1.57;;;0.97;;
20649;SDS011;10484;48.736;9.332;2022-07-11T11:38:35;1.37;;;1.27;;
20649;SDS011;10484;48.736;9.332;2022-07-11T11:41:05;2.00;;;1.27;;
20649;SDS011;10484;48.736;9.332;2022-07-11T11:43:31;1.30;;;1.17;;
20649;SDS011;10484;48.736;9.332;2022-07-11T11:45:58;0.70;;;0.70;;
20649;SDS011;10484;48.736;9.332;2022-07-11T11:51:06;1.60;;;1.50;;
20649;SDS011;10484;48.736;9.332;2022-07-11T11:53:38;3.13;;;1.27;;
20649;SDS011;10484;48.736;9.332;2022-07-11T12:01:34;1.63;;;0.83;;
20649;SDS011;10484;48.736;9.332;2022-07-11T12:04:03;0.97;;;0.87;;
20649;SDS011;10484;48.736;9.332;2022-07-11T12:06:31;1.00;;;1.00;;
20649;SDS011;10484;48.736;9.332;2022-07-11T12:09:18;1.30;;;1.07;;
20649;SDS011;10484;48.736;9.332;2022-07-11T12:11:48;1.33;;;1.23;;
20649;SDS011;10484;48.736;9.332;2022-07-11T12:14:37;1.20;;;1.10;;
20649;SDS011;10484;48.736;9.332;2022-07-11T12:17:03;1.20;;;1.10;;
20649;SDS011;10484;48.736;9.332;2022-07-11T12:19:33;1.47;;;1.37;;
20649;SDS011;10484;48.736;9.332;2022-07-11T12:22:03;1.30;;;1.20;;
20649;SDS011;10484;48.736;9.332;2022-07-11T12:24:29;1.40;;;1.30;;
20649;SDS011;10484;48.736;9.332;2022-07-11T12:26:55;1.60;;;1.50;;
20649;SDS011;10484;48.736;9.332;2022-07-11T12:29:23;2.77;;;1.10;;
20649;SDS011;10484;48.736;9.332;2022-07-11T12:37:35;2.63;;;1.00;;
20649;SDS011;10484;48.736;9.332;2022-07-11T12:39:53;1.53;;;1.20;;
20649;SDS011;10484;48.736;9.332;2022-07-11T12:42:22;2.37;;;1.30;;
20649;SDS011;10484;48.736;9.332;2022-07-11T12:44:57;1.57;;;1.47;;
20649;SDS011;10484;48.736;9.332;2022-07-11T12:47:23;1.20;;;1.10;;
20649;SDS011;10484;48.736;9.332;2022-07-11T12:49:50;2.07;;;1.37;;
20649;SDS011;10484;48.736;9.332;2022-07-11T12:52:16;1.50;;;1.40;;
20649;SDS011;10484;48.736;9.332;2022-07-11T12:54:42;1.47;;;1.37;;
20649;SDS011;10484;48.736;9.332;2022-07-11T12:57:09;1.33;;;1.23;;
20649;SDS011;10484;48.736;9.332;2022-07-11T12:59:40;1.83;;;1.20;;
20649;SDS011;10484;48.736;9.332;2022-07-11T13:02:07;2.80;;;1.17;;
20649;SDS011;10484;48.736;9.332;2022-07-11T13:05:07;1.73;;;1.63;;
20649;SDS011;10484;48.736;9.332;2022-07-11T13:10:15;1.60;;;1.20;;
20649;SDS011;10484;48.736;9.332;2022-07-11T13:12:42;3.00;;;1.73;;
20649;SDS011;10484;48.736;9.332;2022-07-11T13:15:10;1.80;;;1.57;;
20649;SDS011;10484;48.736;9.332;2022-07-11T13:17:44;1.80;;;1.70;;
20649;SDS011;10484;48.736;9.332;2022-07-11T13:20:21;1.83;;;1.70;;
20649;SDS011;10484;48.736;9.332;2022-07-11T13:22:54;1.83;;;1.57;;
20649;SDS011;10484;48.736;9.332;2022-07-11T13:25:20;1.53;;;1.40;;
20649;SDS011;10484;48.736;9.332;2022-07-11T13:27:48;4.20;;;1.60;;
20649;SDS011;10484;48.736;9.332;2022-07-11T13:30:15;1.50;;;1.40;;
20649;SDS011;10484;48.736;9.332;2022-07-11T13:32:42;3.97;;;1.70;;
20649;SDS011;10484;48.736;9.332;2022-07-11T13:35:09;2.20;;;1.87;;
20649;SDS011;10484;48.736;9.332;2022-07-11T13:37:35;1.60;;;1.50;;
20649;SDS011;10484;48.736;9.332;2022-07-11T13:40:03;1.70;;;1.60;;
20649;SDS011;10484;48.736;9.332;2022-07-11T13:42:30;1.60;;;1.50;;
20649;SDS011;10484;48.736;9.332;2022-07-11T13:44:58;2.23;;;1.50;;
20649;SDS011;10484;48.736;9.332;2022-07-11T13:47:24;1.50;;;1.40;;
20649;SDS011;10484;48.736;9.332;2022-07-11T13:49:50;1.67;;;1.57;;
20649;SDS011;10484;48.736;9.332;2022-07-11T13:52:15;1.57;;;1.47;;
20649;SDS011;10484;48.736;9.332;2022-07-11T13:54:41;2.67;;;1.70;;
20649;SDS011;10484;48.736;9.332;2022-07-11T13:57:07;3.37;;;1.90;;
20649;SDS011;10484;48.736;9.332;2022-07-11T13:59:32;2.33;;;1.90;;
20649;SDS011;10484;48.736;9.332;2022-07-11T14:01:58;1.70;;;1.60;;
20649;SDS011;10484;48.736;9.332;2022-07-11T14:04:24;2.43;;;1.60;;
20649;SDS011;10484;48.736;9.332;2022-07-11T14:06:50;2.07;;;1.87;;
20649;SDS011;10484;48.736;9.332;2022-07-11T14:09:15;1.40;;;1.30;;
20649;SDS011;10484;48.736;9.332;2022-07-11T14:11:42;2.30;;;1.93;;
20649;SDS011;10484;48.736;9.332;2022-07-11T14:14:08;2.07;;;1.40;;
20649;SDS011;10484;48.736;9.332;2022-07-11T14:16:34;1.70;;;1.60;;
20649;SDS011;10484;48.736;9.332;2022-07-11T14:19:00;2.57;;;1.70;;
20649;SDS011;10484;48.736;9.332;2022-07-11T14:21:29;1.67;;;1.57;;
20649;SDS011;10484;48.736;9.332;2022-07-11T14:23:58;1.87;;;1.77;;
20649;SDS011;10484;48.736;9.332;2022-07-11T14:26:24;2.50;;;2.30;;
20649;SDS011;10484;48.736;9.332;2022-07-11T14:28:50;1.57;;;1.47;;
20649;SDS011;10484;48.736;9.332;2022-07-11T14:31:16;2.23;;;2.03;;
20649;SDS011;10484;48.736;9.332;2022-07-11T14:33:42;5.73;;;2.23;;
20649;SDS011;10484;48.736;9.332;2022-07-11T14:36:08;1.77;;;1.67;;
20649;SDS011;10484;48.736;9.332;2022-07-11T14:38:33;5.13;;;1.90;;
20649;SDS011;10484;48.736;9.332;2022-07-11T14:40:59;2.70;;;2.00;;
20649;SDS011;10484;48.736;9.332;2022-07-11T14:43:26;3.00;;;1.87;;
20649;SDS011;10484;48.736;9.332;2022-07-11T14:45:55;2.00;;;1.73;;
20649;SDS011;10484;48.736;9.332;2022-07-11T14:48:21;3.63;;;2.70;;
20649;SDS011;10484;48.736;9.332;2022-07-11T14:50:46;4.10;;;1.87;;
20649;SDS011;10484;48.736;9.332;2022-07-11T14:53:12;2.63;;;1.87;;
20649;SDS011;10484;48.736;9.332;2022-07-11T14:55:38;2.27;;;2.07;;
20649;SDS011;10484;48.736;9.332;2022-07-11T14:58:03;2.13;;;1.60;;
20649;SDS011;10484;48.736;9.332;2022-07-11T15:00:29;3.07;;;1.97;;
20649;SDS011;10484;48.736;9.332;2022-07-11T15:02:56;1.97;;;1.80;;
20649;SDS011;10484;48.736;9.332;2022-07-11T15:05:40;2.23;;;2.03;;
20649;SDS011;10484;48.736;9.332;2022-07-11T15:08:06;1.80;;;1.70;;
20649;SDS011;10484;48.736;9.332;2022-07-11T15:10:51;1.70;;;1.60;;
20649;SDS011;10484;48.736;9.332;2022-07-11T15:13:35;1.93;;;1.83;;
20649;SDS011;10484;48.736;9.332;2022-07-11T15:16:01;2.13;;;2.03;;
20649;SDS011;10484;48.736;9.332;2022-07-11T15:18:27;2.43;;;2.33;;
20649;SDS011;10484;48.736;9.332;2022-07-11T15:20:53;1.93;;;1.83;;
20649;SDS011;10484;48.736;9.332;2022-07-11T15:23:19;1.90;;;1.80;;
20649;SDS011;10484;48.736;9.332;2022-07-11T15:25:45;1.70;;;1.60;;
20649;SDS011;10484;48.736;9.332;2022-07-11T15:28:11;2.23;;;1.73;;
20649;SDS011;10484;48.736;9.332;2022-07-11T15:30:37;1.97;;;1.83;;
20649;SDS011;10484;48.736;9.332;2022-07-11T15:33:02;2.80;;;1.80;;
20649;SDS011;10484;48.736;9.332;2022-07-11T15:35:28;2.20;;;2.00;;
20649;SDS011;10484;48.736;9.332;2022-07-11T15:37:53;4.50;;;1.90;;
20649;SDS011;10484;48.736;9.332;2022-07-11T15:40:19;2.10;;;2.00;;
20649;SDS011;10484;48.736;9.332;2022-07-11T15:42:45;2.17;;;1.97;;
20649;SDS011;10484;48.736;9.332;2022-07-11T15:45:11;2.27;;;1.60;;
20649;SDS011;10484;48.736;9.332;2022-07-11T15:47:37;2.60;;;1.73;;